sensor_id;sensor_type;location;lat;lon;timestamp;P1;durP1;ratioP1;P2;durP2;ratioP2
25359;SDS011;13311;51.386;0.016;2023-03-16T00:04:45;8.65;;;2.78;;
25359;SDS011;13311;51.386;0.016;2023-03-16T00:09:46;7.88;;;3.53;;
25359;SDS011;13311;51.386;0.016;2023-03-16T00:14:47;8.55;;;2.97;;
25359;SDS011;13311;51.386;0.016;2023-03-16T00:19:52;11.77;;;3.30;;
25359;SDS011;13311;51.386;0.016;2023-03-16T00:24:55;9.45;;;3.30;;
25359;SDS011;13311;51.386;0.016;2023-03-16T00:29:56;9.18;;;3.00;;
25359;SDS011;13311;51.386;0.016;2023-03-16T00:34:57;7.50;;;2.75;;
25359;SDS011;13311;51.386;0.016;2023-03-16T00:39:59;9.02;;;3.03;;
25359;SDS011;13311;51.386;0.016;2023-03-16T00:45:00;8.57;;;3.10;;
25359;SDS011;13311;51.386;0.016;2023-03-16T00:50:01;9.25;;;2.90;;
25359;SDS011;13311;51.386;0.016;2023-03-16T00:55:02;7.85;;;3.38;;
25359;SDS011;13311;51.386;0.016;2023-03-16T01:00:03;5.75;;;3.25;;
25359;SDS011;13311;51.386;0.016;2023-03-16T01:05:26;8.45;;;3.78;;
25359;SDS011;13311;51.386;0.016;2023-03-16T01:10:27;5.60;;;2.90;;
25359;SDS011;13311;51.386;0.016;2023-03-16T01:15:28;6.20;;;3.78;;
25359;SDS011;13311;51.386;0.016;2023-03-16T01:20:29;6.07;;;3.40;;
25359;SDS011;13311;51.386;0.016;2023-03-16T01:25:32;6.22;;;3.35;;
25359;SDS011;13311;51.386;0.016;2023-03-16T01:30:33;8.43;;;3.35;;
25359;SDS011;13311;51.386;0.016;2023-03-16T01:35:34;7.22;;;3.40;;
25359;SDS011;13311;51.386;0.016;2023-03-16T01:40:35;7.13;;;3.45;;
25359;SDS011;13311;51.386;0.016;2023-03-16T01:51:06;7.53;;;3.58;;
25359;SDS011;13311;51.386;0.016;2023-03-16T01:56:15;3.35;;;2.70;;
25359;SDS011;13311;51.386;0.016;2023-03-16T02:01:22;5.10;;;2.50;;
25359;SDS011;13311;51.386;0.016;2023-03-16T02:06:26;8.07;;;3.20;;
25359;SDS011;13311;51.386;0.016;2023-03-16T02:11:27;10.15;;;3.08;;
25359;SDS011;13311;51.386;0.016;2023-03-16T02:16:29;8.52;;;3.78;;
25359;SDS011;13311;51.386;0.016;2023-03-16T02:21:32;12.57;;;3.92;;
25359;SDS011;13311;51.386;0.016;2023-03-16T02:27:30;10.85;;;4.20;;
25359;SDS011;13311;51.386;0.016;2023-03-16T02:32:09;6.35;;;4.15;;
25359;SDS011;13311;51.386;0.016;2023-03-16T02:37:12;11.52;;;4.70;;
25359;SDS011;13311;51.386;0.016;2023-03-16T02:42:14;11.93;;;4.65;;
25359;SDS011;13311;51.386;0.016;2023-03-16T02:52:40;10.80;;;4.55;;
25359;SDS011;13311;51.386;0.016;2023-03-16T02:57:41;26.73;;;5.50;;
25359;SDS011;13311;51.386;0.016;2023-03-16T03:02:42;12.77;;;4.82;;
25359;SDS011;13311;51.386;0.016;2023-03-16T03:07:44;21.75;;;5.97;;
25359;SDS011;13311;51.386;0.016;2023-03-16T03:12:44;15.82;;;4.63;;
25359;SDS011;13311;51.386;0.016;2023-03-16T03:17:48;13.38;;;4.57;;
25359;SDS011;13311;51.386;0.016;2023-03-16T03:22:49;18.15;;;5.70;;
25359;SDS011;13311;51.386;0.016;2023-03-16T03:27:51;13.48;;;4.82;;
25359;SDS011;13311;51.386;0.016;2023-03-16T03:32:55;13.48;;;6.00;;
25359;SDS011;13311;51.386;0.016;2023-03-16T03:37:55;11.02;;;4.88;;
25359;SDS011;13311;51.386;0.016;2023-03-16T03:42:56;13.93;;;4.55;;
25359;SDS011;13311;51.386;0.016;2023-03-16T03:47:57;14.95;;;4.75;;
25359;SDS011;13311;51.386;0.016;2023-03-16T03:52:58;10.20;;;3.70;;
25359;SDS011;13311;51.386;0.016;2023-03-16T03:57:58;16.60;;;4.10;;
25359;SDS011;13311;51.386;0.016;2023-03-16T04:02:59;13.00;;;3.80;;
25359;SDS011;13311;51.386;0.016;2023-03-16T04:08:00;13.82;;;3.95;;
25359;SDS011;13311;51.386;0.016;2023-03-16T04:13:01;15.10;;;3.85;;
25359;SDS011;13311;51.386;0.016;2023-03-16T04:18:02;9.95;;;3.63;;
25359;SDS011;13311;51.386;0.016;2023-03-16T04:23:03;6.15;;;2.72;;
25359;SDS011;13311;51.386;0.016;2023-03-16T04:28:04;12.55;;;3.35;;
25359;SDS011;13311;51.386;0.016;2023-03-16T04:33:05;6.68;;;3.17;;
25359;SDS011;13311;51.386;0.016;2023-03-16T04:38:05;9.85;;;2.72;;
25359;SDS011;13311;51.386;0.016;2023-03-16T04:43:06;11.00;;;3.63;;
25359;SDS011;13311;51.386;0.016;2023-03-16T04:48:07;9.65;;;2.90;;
25359;SDS011;13311;51.386;0.016;2023-03-16T04:53:09;8.85;;;2.70;;
25359;SDS011;13311;51.386;0.016;2023-03-16T04:58:10;9.80;;;3.30;;
25359;SDS011;13311;51.386;0.016;2023-03-16T05:03:12;10.02;;;3.30;;
25359;SDS011;13311;51.386;0.016;2023-03-16T05:08:13;8.38;;;3.05;;
25359;SDS011;13311;51.386;0.016;2023-03-16T05:13:14;9.35;;;3.08;;
25359;SDS011;13311;51.386;0.016;2023-03-16T05:18:15;6.28;;;2.45;;
25359;SDS011;13311;51.386;0.016;2023-03-16T05:23:16;5.50;;;2.38;;
25359;SDS011;13311;51.386;0.016;2023-03-16T05:28:16;3.38;;;2.00;;
25359;SDS011;13311;51.386;0.016;2023-03-16T05:33:17;7.22;;;2.22;;
25359;SDS011;13311;51.386;0.016;2023-03-16T05:38:18;9.45;;;2.35;;
25359;SDS011;13311;51.386;0.016;2023-03-16T05:43:19;7.70;;;2.85;;
25359;SDS011;13311;51.386;0.016;2023-03-16T05:48:21;7.72;;;2.80;;
25359;SDS011;13311;51.386;0.016;2023-03-16T05:53:24;7.38;;;2.92;;
25359;SDS011;13311;51.386;0.016;2023-03-16T05:58:27;12.40;;;3.08;;
25359;SDS011;13311;51.386;0.016;2023-03-16T06:03:28;10.65;;;3.17;;
25359;SDS011;13311;51.386;0.016;2023-03-16T06:08:29;16.50;;;3.45;;
25359;SDS011;13311;51.386;0.016;2023-03-16T06:13:29;6.53;;;2.33;;
25359;SDS011;13311;51.386;0.016;2023-03-16T06:18:30;4.18;;;1.98;;
25359;SDS011;13311;51.386;0.016;2023-03-16T06:23:33;9.40;;;3.08;;
25359;SDS011;13311;51.386;0.016;2023-03-16T06:28:34;10.45;;;3.13;;
25359;SDS011;13311;51.386;0.016;2023-03-16T06:33:35;15.27;;;3.55;;
25359;SDS011;13311;51.386;0.016;2023-03-16T06:38:36;8.55;;;2.30;;
25359;SDS011;13311;51.386;0.016;2023-03-16T06:43:37;17.55;;;3.55;;
25359;SDS011;13311;51.386;0.016;2023-03-16T06:48:38;7.88;;;2.53;;
25359;SDS011;13311;51.386;0.016;2023-03-16T06:53:39;12.88;;;2.58;;
25359;SDS011;13311;51.386;0.016;2023-03-16T06:58:40;6.95;;;2.17;;
25359;SDS011;13311;51.386;0.016;2023-03-16T07:03:41;4.90;;;2.15;;
25359;SDS011;13311;51.386;0.016;2023-03-16T07:08:41;8.20;;;2.30;;
25359;SDS011;13311;51.386;0.016;2023-03-16T07:13:42;10.10;;;1.88;;
25359;SDS011;13311;51.386;0.016;2023-03-16T07:18:43;8.02;;;2.83;;
25359;SDS011;13311;51.386;0.016;2023-03-16T07:23:44;7.50;;;2.05;;
25359;SDS011;13311;51.386;0.016;2023-03-16T07:28:44;8.95;;;1.98;;
25359;SDS011;13311;51.386;0.016;2023-03-16T07:33:45;7.68;;;1.98;;
25359;SDS011;13311;51.386;0.016;2023-03-16T07:38:46;5.75;;;1.70;;
25359;SDS011;13311;51.386;0.016;2023-03-16T07:43:47;3.03;;;1.40;;
25359;SDS011;13311;51.386;0.016;2023-03-16T07:48:47;5.00;;;1.48;;
25359;SDS011;13311;51.386;0.016;2023-03-16T07:53:48;6.75;;;1.92;;
25359;SDS011;13311;51.386;0.016;2023-03-16T07:58:49;4.22;;;1.35;;
25359;SDS011;13311;51.386;0.016;2023-03-16T08:03:50;2.35;;;1.00;;
25359;SDS011;13311;51.386;0.016;2023-03-16T08:08:52;3.17;;;1.35;;
25359;SDS011;13311;51.386;0.016;2023-03-16T08:13:53;3.42;;;1.30;;
25359;SDS011;13311;51.386;0.016;2023-03-16T08:18:55;6.93;;;1.52;;
25359;SDS011;13311;51.386;0.016;2023-03-16T08:23:56;4.18;;;1.42;;
25359;SDS011;13311;51.386;0.016;2023-03-16T08:28:57;3.65;;;1.10;;
25359;SDS011;13311;51.386;0.016;2023-03-16T08:34:01;4.35;;;1.42;;
25359;SDS011;13311;51.386;0.016;2023-03-16T08:39:03;7.13;;;2.72;;
25359;SDS011;13311;51.386;0.016;2023-03-16T08:44:07;2.95;;;1.33;;
25359;SDS011;13311;51.386;0.016;2023-03-16T08:49:09;5.82;;;1.88;;
25359;SDS011;13311;51.386;0.016;2023-03-16T08:54:11;7.88;;;1.60;;
25359;SDS011;13311;51.386;0.016;2023-03-16T08:59:12;2.10;;;1.13;;
25359;SDS011;13311;51.386;0.016;2023-03-16T09:04:13;5.05;;;1.92;;
25359;SDS011;13311;51.386;0.016;2023-03-16T09:09:14;4.10;;;1.60;;
25359;SDS011;13311;51.386;0.016;2023-03-16T09:14:15;7.85;;;2.78;;
25359;SDS011;13311;51.386;0.016;2023-03-16T09:19:16;10.20;;;1.90;;
25359;SDS011;13311;51.386;0.016;2023-03-16T09:24:17;9.43;;;1.77;;
25359;SDS011;13311;51.386;0.016;2023-03-16T09:29:18;4.60;;;1.48;;
25359;SDS011;13311;51.386;0.016;2023-03-16T09:34:18;9.93;;;2.30;;
25359;SDS011;13311;51.386;0.016;2023-03-16T09:39:20;10.68;;;1.95;;
25359;SDS011;13311;51.386;0.016;2023-03-16T09:50:04;10.10;;;2.42;;
25359;SDS011;13311;51.386;0.016;2023-03-16T09:55:14;9.85;;;1.95;;
25359;SDS011;13311;51.386;0.016;2023-03-16T10:00:30;15.63;;;2.22;;
25359;SDS011;13311;51.386;0.016;2023-03-16T10:06:13;14.63;;;2.15;;
25359;SDS011;13311;51.386;0.016;2023-03-16T10:11:29;14.07;;;2.65;;
25359;SDS011;13311;51.386;0.016;2023-03-16T10:16:42;10.82;;;2.17;;
25359;SDS011;13311;51.386;0.016;2023-03-16T10:22:08;10.70;;;2.05;;
25359;SDS011;13311;51.386;0.016;2023-03-16T10:27:27;8.57;;;1.95;;
25359;SDS011;13311;51.386;0.016;2023-03-16T10:32:32;11.00;;;2.28;;
25359;SDS011;13311;51.386;0.016;2023-03-16T10:37:35;7.05;;;1.77;;
25359;SDS011;13311;51.386;0.016;2023-03-16T10:42:37;8.75;;;2.25;;
25359;SDS011;13311;51.386;0.016;2023-03-16T10:47:38;5.88;;;1.42;;
25359;SDS011;13311;51.386;0.016;2023-03-16T10:52:39;9.50;;;2.13;;
25359;SDS011;13311;51.386;0.016;2023-03-16T10:57:47;6.78;;;1.60;;
25359;SDS011;13311;51.386;0.016;2023-03-16T11:02:52;9.23;;;2.00;;
25359;SDS011;13311;51.386;0.016;2023-03-16T11:08:19;6.90;;;1.77;;
25359;SDS011;13311;51.386;0.016;2023-03-16T11:13:24;7.95;;;2.00;;
25359;SDS011;13311;51.386;0.016;2023-03-16T11:18:37;7.05;;;1.60;;
25359;SDS011;13311;51.386;0.016;2023-03-16T11:23:48;8.55;;;1.50;;
25359;SDS011;13311;51.386;0.016;2023-03-16T11:28:56;8.05;;;2.00;;
25359;SDS011;13311;51.386;0.016;2023-03-16T11:34:12;9.82;;;1.83;;
25359;SDS011;13311;51.386;0.016;2023-03-16T11:49:54;7.85;;;1.75;;
25359;SDS011;13311;51.386;0.016;2023-03-16T12:12:04;4.70;;;1.65;;
25359;SDS011;13311;51.386;0.016;2023-03-16T12:17:18;8.70;;;1.77;;
25359;SDS011;13311;51.386;0.016;2023-03-16T12:22:28;8.05;;;2.03;;
25359;SDS011;13311;51.386;0.016;2023-03-16T12:43:30;4.05;;;2.10;;
25359;SDS011;13311;51.386;0.016;2023-03-16T12:48:43;5.53;;;2.40;;
25359;SDS011;13311;51.386;0.016;2023-03-16T12:54:00;9.52;;;2.60;;
25359;SDS011;13311;51.386;0.016;2023-03-16T12:59:02;9.98;;;2.22;;
25359;SDS011;13311;51.386;0.016;2023-03-16T13:04:09;5.88;;;1.83;;
25359;SDS011;13311;51.386;0.016;2023-03-16T13:09:17;9.45;;;2.08;;
25359;SDS011;13311;51.386;0.016;2023-03-16T13:19:42;7.57;;;1.77;;
25359;SDS011;13311;51.386;0.016;2023-03-16T13:25:34;10.45;;;3.13;;
25359;SDS011;13311;51.386;0.016;2023-03-16T13:30:47;5.47;;;2.05;;
25359;SDS011;13311;51.386;0.016;2023-03-16T13:35:49;4.68;;;2.45;;
25359;SDS011;13311;51.386;0.016;2023-03-16T13:40:53;8.98;;;3.30;;
25359;SDS011;13311;51.386;0.016;2023-03-16T13:46:12;9.38;;;2.90;;
25359;SDS011;13311;51.386;0.016;2023-03-16T13:51:21;6.53;;;2.67;;
25359;SDS011;13311;51.386;0.016;2023-03-16T13:56:24;11.55;;;4.20;;
25359;SDS011;13311;51.386;0.016;2023-03-16T14:01:28;12.60;;;3.00;;
25359;SDS011;13311;51.386;0.016;2023-03-16T14:06:31;13.52;;;3.20;;
25359;SDS011;13311;51.386;0.016;2023-03-16T14:11:34;11.73;;;3.22;;
25359;SDS011;13311;51.386;0.016;2023-03-16T14:16:36;6.95;;;3.10;;
25359;SDS011;13311;51.386;0.016;2023-03-16T14:21:36;8.18;;;2.42;;
25359;SDS011;13311;51.386;0.016;2023-03-16T14:26:44;3.55;;;2.03;;
25359;SDS011;13311;51.386;0.016;2023-03-16T14:31:46;5.32;;;1.90;;
25359;SDS011;13311;51.386;0.016;2023-03-16T14:36:47;7.80;;;2.20;;
25359;SDS011;13311;51.386;0.016;2023-03-16T14:41:48;8.13;;;2.30;;
25359;SDS011;13311;51.386;0.016;2023-03-16T14:46:52;6.43;;;2.15;;
25359;SDS011;13311;51.386;0.016;2023-03-16T14:52:07;6.07;;;2.50;;
25359;SDS011;13311;51.386;0.016;2023-03-16T14:57:24;9.43;;;3.43;;
25359;SDS011;13311;51.386;0.016;2023-03-16T15:02:27;8.98;;;2.30;;
25359;SDS011;13311;51.386;0.016;2023-03-16T15:07:33;8.50;;;2.25;;
25359;SDS011;13311;51.386;0.016;2023-03-16T15:12:39;6.40;;;1.98;;
25359;SDS011;13311;51.386;0.016;2023-03-16T15:17:43;4.78;;;1.95;;
25359;SDS011;13311;51.386;0.016;2023-03-16T15:22:45;5.70;;;2.42;;
25359;SDS011;13311;51.386;0.016;2023-03-16T15:27:48;6.57;;;2.50;;
25359;SDS011;13311;51.386;0.016;2023-03-16T15:32:50;10.23;;;2.42;;
25359;SDS011;13311;51.386;0.016;2023-03-16T15:37:51;5.45;;;2.35;;
25359;SDS011;13311;51.386;0.016;2023-03-16T15:42:53;6.90;;;1.92;;
25359;SDS011;13311;51.386;0.016;2023-03-16T15:47:54;7.43;;;2.25;;
25359;SDS011;13311;51.386;0.016;2023-03-16T15:52:56;3.00;;;1.70;;
25359;SDS011;13311;51.386;0.016;2023-03-16T15:58:05;6.00;;;2.28;;
25359;SDS011;13311;51.386;0.016;2023-03-16T16:03:15;4.05;;;2.20;;
25359;SDS011;13311;51.386;0.016;2023-03-16T16:08:16;5.00;;;2.03;;
25359;SDS011;13311;51.386;0.016;2023-03-16T16:13:24;5.72;;;2.17;;
25359;SDS011;13311;51.386;0.016;2023-03-16T16:18:29;7.38;;;2.30;;
25359;SDS011;13311;51.386;0.016;2023-03-16T16:23:35;5.18;;;2.38;;
25359;SDS011;13311;51.386;0.016;2023-03-16T16:28:36;9.07;;;2.60;;
25359;SDS011;13311;51.386;0.016;2023-03-16T16:33:37;4.75;;;1.95;;
25359;SDS011;13311;51.386;0.016;2023-03-16T16:38:38;6.95;;;2.25;;
25359;SDS011;13311;51.386;0.016;2023-03-16T16:43:39;6.80;;;2.53;;
25359;SDS011;13311;51.386;0.016;2023-03-16T16:48:53;6.38;;;2.17;;
25359;SDS011;13311;51.386;0.016;2023-03-16T16:54:00;6.82;;;2.55;;
25359;SDS011;13311;51.386;0.016;2023-03-16T16:59:20;4.68;;;2.55;;
25359;SDS011;13311;51.386;0.016;2023-03-16T17:04:28;6.68;;;2.45;;
25359;SDS011;13311;51.386;0.016;2023-03-16T17:09:29;3.60;;;1.77;;
25359;SDS011;13311;51.386;0.016;2023-03-16T17:14:30;9.77;;;2.13;;
25359;SDS011;13311;51.386;0.016;2023-03-16T17:19:31;5.00;;;2.25;;
25359;SDS011;13311;51.386;0.016;2023-03-16T17:24:32;6.10;;;2.35;;
25359;SDS011;13311;51.386;0.016;2023-03-16T17:29:33;7.20;;;2.40;;
25359;SDS011;13311;51.386;0.016;2023-03-16T17:34:35;6.50;;;2.47;;
25359;SDS011;13311;51.386;0.016;2023-03-16T17:39:36;6.30;;;2.10;;
25359;SDS011;13311;51.386;0.016;2023-03-16T17:44:39;7.22;;;2.03;;
25359;SDS011;13311;51.386;0.016;2023-03-16T17:49:43;5.35;;;2.30;;
25359;SDS011;13311;51.386;0.016;2023-03-16T17:54:47;6.70;;;2.38;;
25359;SDS011;13311;51.386;0.016;2023-03-16T17:59:50;4.50;;;2.33;;
25359;SDS011;13311;51.386;0.016;2023-03-16T18:04:52;9.05;;;3.13;;
25359;SDS011;13311;51.386;0.016;2023-03-16T18:09:52;6.65;;;2.42;;
25359;SDS011;13311;51.386;0.016;2023-03-16T18:14:53;7.13;;;2.65;;
25359;SDS011;13311;51.386;0.016;2023-03-16T18:19:57;5.75;;;2.38;;
25359;SDS011;13311;51.386;0.016;2023-03-16T18:24:58;7.53;;;2.30;;
25359;SDS011;13311;51.386;0.016;2023-03-16T18:30:00;9.23;;;2.47;;
25359;SDS011;13311;51.386;0.016;2023-03-16T18:35:01;7.55;;;2.88;;
25359;SDS011;13311;51.386;0.016;2023-03-16T18:40:02;9.48;;;3.65;;
25359;SDS011;13311;51.386;0.016;2023-03-16T18:45:04;8.77;;;3.67;;
25359;SDS011;13311;51.386;0.016;2023-03-16T18:50:08;11.93;;;4.18;;
25359;SDS011;13311;51.386;0.016;2023-03-16T18:55:25;10.00;;;3.80;;
25359;SDS011;13311;51.386;0.016;2023-03-16T19:00:27;7.72;;;2.70;;
25359;SDS011;13311;51.386;0.016;2023-03-16T19:05:32;11.00;;;2.95;;
25359;SDS011;13311;51.386;0.016;2023-03-16T19:10:37;5.85;;;2.53;;
25359;SDS011;13311;51.386;0.016;2023-03-16T19:15:46;8.13;;;3.15;;
25359;SDS011;13311;51.386;0.016;2023-03-16T19:20:52;5.93;;;2.70;;
25359;SDS011;13311;51.386;0.016;2023-03-16T19:25:55;7.55;;;2.95;;
25359;SDS011;13311;51.386;0.016;2023-03-16T19:30:57;6.07;;;2.08;;
25359;SDS011;13311;51.386;0.016;2023-03-16T19:35:58;5.85;;;2.33;;
25359;SDS011;13311;51.386;0.016;2023-03-16T19:40:59;6.28;;;2.58;;
25359;SDS011;13311;51.386;0.016;2023-03-16T19:46:00;9.63;;;3.03;;
25359;SDS011;13311;51.386;0.016;2023-03-16T19:51:01;8.55;;;2.70;;
25359;SDS011;13311;51.386;0.016;2023-03-16T19:56:01;8.13;;;3.17;;
25359;SDS011;13311;51.386;0.016;2023-03-16T20:01:03;9.55;;;3.25;;
25359;SDS011;13311;51.386;0.016;2023-03-16T20:06:08;10.27;;;3.63;;
25359;SDS011;13311;51.386;0.016;2023-03-16T20:11:21;6.05;;;2.72;;
25359;SDS011;13311;51.386;0.016;2023-03-16T20:16:31;11.18;;;3.08;;
25359;SDS011;13311;51.386;0.016;2023-03-16T20:21:34;5.78;;;2.85;;
25359;SDS011;13311;51.386;0.016;2023-03-16T20:26:35;8.70;;;3.90;;
25359;SDS011;13311;51.386;0.016;2023-03-16T20:31:36;6.80;;;3.40;;
25359;SDS011;13311;51.386;0.016;2023-03-16T20:36:36;6.47;;;3.08;;
25359;SDS011;13311;51.386;0.016;2023-03-16T20:41:37;8.93;;;3.08;;
25359;SDS011;13311;51.386;0.016;2023-03-16T20:46:38;7.82;;;3.25;;
25359;SDS011;13311;51.386;0.016;2023-03-16T20:51:40;7.88;;;3.38;;
25359;SDS011;13311;51.386;0.016;2023-03-16T20:56:40;7.93;;;2.72;;
25359;SDS011;13311;51.386;0.016;2023-03-16T21:01:41;8.25;;;3.15;;
25359;SDS011;13311;51.386;0.016;2023-03-16T21:06:44;7.07;;;3.13;;
25359;SDS011;13311;51.386;0.016;2023-03-16T21:11:47;8.15;;;2.67;;
25359;SDS011;13311;51.386;0.016;2023-03-16T21:16:48;6.80;;;2.90;;
25359;SDS011;13311;51.386;0.016;2023-03-16T21:21:50;6.55;;;2.60;;
25359;SDS011;13311;51.386;0.016;2023-03-16T21:26:51;9.07;;;3.05;;
25359;SDS011;13311;51.386;0.016;2023-03-16T21:31:52;9.68;;;3.10;;
25359;SDS011;13311;51.386;0.016;2023-03-16T21:36:52;10.40;;;3.15;;
25359;SDS011;13311;51.386;0.016;2023-03-16T21:41:53;6.68;;;2.70;;
25359;SDS011;13311;51.386;0.016;2023-03-16T21:46:54;7.88;;;2.90;;
25359;SDS011;13311;51.386;0.016;2023-03-16T21:51:55;8.13;;;2.75;;
25359;SDS011;13311;51.386;0.016;2023-03-16T21:56:56;6.78;;;2.90;;
25359;SDS011;13311;51.386;0.016;2023-03-16T22:01:56;9.18;;;3.40;;
25359;SDS011;13311;51.386;0.016;2023-03-16T22:06:57;10.93;;;2.95;;
25359;SDS011;13311;51.386;0.016;2023-03-16T22:11:58;7.82;;;2.90;;
25359;SDS011;13311;51.386;0.016;2023-03-16T22:16:58;5.80;;;2.35;;
25359;SDS011;13311;51.386;0.016;2023-03-16T22:21:59;10.63;;;3.17;;
25359;SDS011;13311;51.386;0.016;2023-03-16T22:27:00;6.50;;;3.10;;
25359;SDS011;13311;51.386;0.016;2023-03-16T22:32:02;10.18;;;3.33;;
25359;SDS011;13311;51.386;0.016;2023-03-16T22:37:07;7.93;;;3.13;;
25359;SDS011;13311;51.386;0.016;2023-03-16T22:47:36;8.50;;;3.10;;
25359;SDS011;13311;51.386;0.016;2023-03-16T22:52:38;6.60;;;3.22;;
25359;SDS011;13311;51.386;0.016;2023-03-16T22:57:38;12.38;;;3.10;;
25359;SDS011;13311;51.386;0.016;2023-03-16T23:02:39;14.30;;;4.10;;
25359;SDS011;13311;51.386;0.016;2023-03-16T23:07:40;6.80;;;3.03;;
25359;SDS011;13311;51.386;0.016;2023-03-16T23:12:40;11.77;;;3.35;;
25359;SDS011;13311;51.386;0.016;2023-03-16T23:17:42;11.10;;;5.05;;
25359;SDS011;13311;51.386;0.016;2023-03-16T23:22:43;12.88;;;4.20;;
25359;SDS011;13311;51.386;0.016;2023-03-16T23:27:44;9.40;;;3.40;;
25359;SDS011;13311;51.386;0.016;2023-03-16T23:32:46;13.02;;;4.30;;
25359;SDS011;13311;51.386;0.016;2023-03-16T23:37:47;9.40;;;3.00;;
25359;SDS011;13311;51.386;0.016;2023-03-16T23:42:49;11.80;;;3.75;;
25359;SDS011;13311;51.386;0.016;2023-03-16T23:47:53;8.52;;;3.50;;
25359;SDS011;13311;51.386;0.016;2023-03-16T23:52:57;9.68;;;3.67;;
25359;SDS011;13311;51.386;0.016;2023-03-16T23:57:58;9.70;;;3.03;;
